Milaca, MN (56353)

12:32 AM CDT on March 27, 2015 (GMT -0500)
RoboWeather - Mille Lacs County | | Change Station
CLOSE
Current Station
Personal Weather Station
Location: Milaca, MN
Elevation: 1100 ft
Nearby Weather Stations

Elev 1100 ft 45.81 °N, 93.61 °W | Updated 55 seconds ago

Clear
Clear
21.0 °F
Feels Like 21 °F
N
0.0
Wind Variable Wind from North
Gusts 0.0 mph

Today
High -- | Low -- °F
--% Chance of Precip.
Yesterday
High -- | Low -- °F
Precip. -- in
7:04 AM 7:36 PM
Waxing Crescent, 49% visible
Pressure 30.23 in
Visibility 10.0 miles
Clouds Clear
Windchill 21 °F
Dew Point 10 °F
Humidity 63%
Rainfall 0.00 in
Snow Depth Not available.
UV 0 out of 12
Pollen 1.80 out of 12
Air Quality Not available.
Flu Activity Not available.
METAR KPNM 270514Z AUTO 34005KT 10SM CLR M04/M12 A3023 RMK AO2

More Conditions Fewer Conditions

Pressure 30.23 in
Visibility 10.0 miles
Clouds Clear
Windchill 21 °F
Dew Point 10 °F
Humidity 63%
Rainfall 0.00 in
Snow Depth Not available.
UV 0 out of 12
Pollen 1.80 out of 12
Air Quality Not available.
Flu Activity Not available.
METAR KPNM 270514Z AUTO 34005KT 10SM CLR M04/M12 A3023 RMK AO2

More Conditions Fewer Conditions

10-Day Weather Forecast

Almanac

Astronomy

Mar. 27, 2015 Rise Set
Actual Time
Civil Twilight
Nautical Twilight
Astronomical Twilight
Moon
Length of Visible Light
Length of Day
Tomorrow will be .
, % of the Moon is Illuminated

Today's Extremes

State Highs State Lows

Community

WunderPhotos

Upload Photos

1,808,698 photos uploaded!

WunderBlogs® & News

Nearby

Air Quality

  Air Quality AQ Index Pollutant
Not available.

Snow Depth

Station Depth Elevation

Earthquake Activity

City Distance Mag. Time & Date
Minimum magnitude displayed is 2.5.

Coastal Water Temperatures

Place Temperature

Stations

Nearby Weather Stations

Station Location Temp. Windchill Dew Point Humidity Wind Precip. Elev Updated Type